sensor_id;sensor_type;location;lat;lon;timestamp;pressure;altitude;pressure_sealevel;temperature;humidity
38400;BME280;24180;42.676;23.320;2023-03-26T00:01:14;94284.31;;;9.86;100.00
38400;BME280;24180;42.676;23.320;2023-03-26T00:03:41;94298.78;;;9.97;100.00
38400;BME280;24180;42.676;23.320;2023-03-26T00:06:10;94313.63;;;9.95;100.00
38400;BME280;24180;42.676;23.320;2023-03-26T00:08:38;94309.44;;;9.94;100.00
38400;BME280;24180;42.676;23.320;2023-03-26T00:11:04;94302.56;;;9.85;100.00
38400;BME280;24180;42.676;23.320;2023-03-26T00:13:30;94306.09;;;9.84;100.00
38400;BME280;24180;42.676;23.320;2023-03-26T00:15:57;94309.31;;;9.78;100.00
38400;BME280;24180;42.676;23.320;2023-03-26T00:18:23;94272.03;;;9.63;100.00
38400;BME280;24180;42.676;23.320;2023-03-26T00:21:00;94295.41;;;9.79;100.00
38400;BME280;24180;42.676;23.320;2023-03-26T00:23:27;94257.47;;;9.62;100.00
38400;BME280;24180;42.676;23.320;2023-03-26T00:25:53;94274.50;;;9.72;100.00
38400;BME280;24180;42.676;23.320;2023-03-26T00:28:21;94271.78;;;9.74;100.00
38400;BME280;24180;42.676;23.320;2023-03-26T00:31:00;94253.25;;;9.61;100.00
38400;BME280;24180;42.676;23.320;2023-03-26T00:33:26;94252.31;;;9.62;100.00
38400;BME280;24180;42.676;23.320;2023-03-26T00:35:56;94260.44;;;9.67;100.00
38400;BME280;24180;42.676;23.320;2023-03-26T00:38:23;94252.59;;;9.59;100.00
38400;BME280;24180;42.676;23.320;2023-03-26T00:40:50;94276.97;;;9.74;100.00
38400;BME280;24180;42.676;23.320;2023-03-26T00:43:20;94277.78;;;9.74;100.00
38400;BME280;24180;42.676;23.320;2023-03-26T00:45:49;94269.72;;;9.77;100.00
38400;BME280;24180;42.676;23.320;2023-03-26T00:48:16;94253.13;;;9.62;100.00
38400;BME280;24180;42.676;23.320;2023-03-26T00:50:43;94281.50;;;9.80;100.00
38400;BME280;24180;42.676;23.320;2023-03-26T00:53:11;94280.50;;;9.73;100.00
38400;BME280;24180;42.676;23.320;2023-03-26T00:55:38;94257.16;;;9.65;100.00
38400;BME280;24180;42.676;23.320;2023-03-26T00:58:04;94278.28;;;9.78;100.00
38400;BME280;24180;42.676;23.320;2023-03-26T01:00:33;94268.88;;;9.77;100.00
38400;BME280;24180;42.676;23.320;2023-03-26T01:03:03;94272.03;;;9.88;100.00
38400;BME280;24180;42.676;23.320;2023-03-26T01:10:43;94246.94;;;9.81;100.00
38400;BME280;24180;42.676;23.320;2023-03-26T01:13:16;94261.78;;;9.79;100.00
38400;BME280;24180;42.676;23.320;2023-03-26T01:15:43;94281.44;;;9.90;100.00
38400;BME280;24180;42.676;23.320;2023-03-26T01:18:14;94250.38;;;9.64;100.00
38400;BME280;24180;42.676;23.320;2023-03-26T01:20:42;94253.41;;;9.59;100.00
38400;BME280;24180;42.676;23.320;2023-03-26T01:23:12;94285.53;;;9.74;100.00
38400;BME280;24180;42.676;23.320;2023-03-26T01:25:42;94265.22;;;9.62;100.00
38400;BME280;24180;42.676;23.320;2023-03-26T01:28:10;94289.56;;;9.77;100.00
38400;BME280;24180;42.676;23.320;2023-03-26T01:38:26;94285.59;;;9.47;100.00
38400;BME280;24180;42.676;23.320;2023-03-26T01:43:30;94275.44;;;9.46;100.00
38400;BME280;24180;42.676;23.320;2023-03-26T01:46:00;94297.72;;;9.64;100.00
38400;BME280;24180;42.676;23.320;2023-03-26T01:48:33;94288.13;;;9.57;100.00
38400;BME280;24180;42.676;23.320;2023-03-26T01:51:00;94280.88;;;9.60;100.00
38400;BME280;24180;42.676;23.320;2023-03-26T01:53:26;94306.97;;;9.67;100.00
38400;BME280;24180;42.676;23.320;2023-03-26T02:02:11;94281.56;;;9.45;100.00
38400;BME280;24180;42.676;23.320;2023-03-26T02:07:21;94307.00;;;9.39;100.00
38400;BME280;24180;42.676;23.320;2023-03-26T02:09:52;94310.50;;;9.30;100.00
38400;BME280;24180;42.676;23.320;2023-03-26T02:12:21;94257.19;;;8.94;100.00
38400;BME280;24180;42.676;23.320;2023-03-26T02:14:47;94272.06;;;9.00;100.00
38400;BME280;24180;42.676;23.320;2023-03-26T02:17:13;94298.41;;;9.04;100.00
38400;BME280;24180;42.676;23.320;2023-03-26T02:19:38;94292.44;;;9.03;100.00
38400;BME280;24180;42.676;23.320;2023-03-26T02:22:08;94266.44;;;8.87;100.00
38400;BME280;24180;42.676;23.320;2023-03-26T02:24:37;94274.47;;;8.84;100.00
38400;BME280;24180;42.676;23.320;2023-03-26T02:27:03;94288.16;;;8.94;100.00
38400;BME280;24180;42.676;23.320;2023-03-26T02:29:33;94280.50;;;9.02;100.00
38400;BME280;24180;42.676;23.320;2023-03-26T02:32:04;94277.25;;;9.00;100.00
38400;BME280;24180;42.676;23.320;2023-03-26T02:34:30;94297.78;;;9.19;100.00
38400;BME280;24180;42.676;23.320;2023-03-26T02:36:57;94258.06;;;9.03;100.00
38400;BME280;24180;42.676;23.320;2023-03-26T02:39:23;94282.28;;;9.19;100.00
38400;BME280;24180;42.676;23.320;2023-03-26T02:41:48;94288.13;;;9.21;100.00
38400;BME280;24180;42.676;23.320;2023-03-26T02:44:14;94291.28;;;9.15;100.00
38400;BME280;24180;42.676;23.320;2023-03-26T02:46:39;94324.06;;;9.32;100.00
38400;BME280;24180;42.676;23.320;2023-03-26T02:49:05;94325.69;;;9.33;100.00
38400;BME280;24180;42.676;23.320;2023-03-26T02:51:30;94332.03;;;9.21;100.00
38400;BME280;24180;42.676;23.320;2023-03-26T02:53:59;94324.50;;;9.10;100.00
38400;BME280;24180;42.676;23.320;2023-03-26T02:56:25;94331.00;;;9.14;100.00
38400;BME280;24180;42.676;23.320;2023-03-26T02:58:50;94279.50;;;8.85;100.00
38400;BME280;24180;42.676;23.320;2023-03-26T03:01:16;94309.19;;;8.99;100.00
38400;BME280;24180;42.676;23.320;2023-03-26T03:03:42;94328.31;;;9.06;100.00
38400;BME280;24180;42.676;23.320;2023-03-26T03:06:08;94325.66;;;8.98;100.00
38400;BME280;24180;42.676;23.320;2023-03-26T03:08:33;94322.09;;;8.99;100.00
38400;BME280;24180;42.676;23.320;2023-03-26T03:11:01;94332.41;;;8.99;100.00
38400;BME280;24180;42.676;23.320;2023-03-26T03:13:27;94338.97;;;8.93;100.00
38400;BME280;24180;42.676;23.320;2023-03-26T03:15:53;94322.78;;;8.74;100.00
38400;BME280;24180;42.676;23.320;2023-03-26T03:18:18;94336.59;;;8.82;100.00
38400;BME280;24180;42.676;23.320;2023-03-26T03:20:44;94289.19;;;8.46;100.00
38400;BME280;24180;42.676;23.320;2023-03-26T03:23:10;94322.00;;;8.64;100.00
38400;BME280;24180;42.676;23.320;2023-03-26T03:25:35;94339.41;;;8.62;100.00
38400;BME280;24180;42.676;23.320;2023-03-26T03:28:02;94315.69;;;8.49;100.00
38400;BME280;24180;42.676;23.320;2023-03-26T03:30:28;94341.97;;;8.62;100.00
38400;BME280;24180;42.676;23.320;2023-03-26T03:32:54;94313.50;;;8.44;100.00
38400;BME280;24180;42.676;23.320;2023-03-26T03:35:25;94339.00;;;8.57;100.00
38400;BME280;24180;42.676;23.320;2023-03-26T03:37:52;94339.66;;;8.59;100.00
38400;BME280;24180;42.676;23.320;2023-03-26T03:40:18;94330.47;;;8.46;100.00
38400;BME280;24180;42.676;23.320;2023-03-26T03:42:45;94323.53;;;8.47;100.00
38400;BME280;24180;42.676;23.320;2023-03-26T03:45:11;94311.22;;;8.41;100.00
38400;BME280;24180;42.676;23.320;2023-03-26T03:47:37;94304.72;;;8.37;100.00
38400;BME280;24180;42.676;23.320;2023-03-26T03:50:04;94306.59;;;8.35;100.00
38400;BME280;24180;42.676;23.320;2023-03-26T03:52:30;94292.81;;;8.17;100.00
38400;BME280;24180;42.676;23.320;2023-03-26T03:54:56;94294.56;;;8.16;100.00
38400;BME280;24180;42.676;23.320;2023-03-26T03:57:25;94301.06;;;8.20;100.00
38400;BME280;24180;42.676;23.320;2023-03-26T03:59:51;94338.66;;;8.32;100.00
38400;BME280;24180;42.676;23.320;2023-03-26T04:02:17;94327.00;;;8.19;100.00
38400;BME280;24180;42.676;23.320;2023-03-26T04:04:53;94321.28;;;8.15;100.00
38400;BME280;24180;42.676;23.320;2023-03-26T04:07:22;94315.06;;;8.18;100.00
38400;BME280;24180;42.676;23.320;2023-03-26T04:09:47;94352.25;;;8.34;100.00
38400;BME280;24180;42.676;23.320;2023-03-26T04:12:13;94361.19;;;8.40;100.00
38400;BME280;24180;42.676;23.320;2023-03-26T04:14:38;94345.31;;;8.25;100.00
38400;BME280;24180;42.676;23.320;2023-03-26T04:17:04;94378.84;;;8.44;100.00
38400;BME280;24180;42.676;23.320;2023-03-26T04:19:30;94387.22;;;8.46;100.00
38400;BME280;24180;42.676;23.320;2023-03-26T04:21:55;94365.53;;;8.39;100.00
38400;BME280;24180;42.676;23.320;2023-03-26T04:24:29;94390.50;;;8.49;100.00
38400;BME280;24180;42.676;23.320;2023-03-26T04:26:58;94402.16;;;8.53;100.00
38400;BME280;24180;42.676;23.320;2023-03-26T04:29:25;94394.03;;;8.48;100.00
38400;BME280;24180;42.676;23.320;2023-03-26T04:31:55;94411.38;;;8.55;100.00
38400;BME280;24180;42.676;23.320;2023-03-26T04:34:31;94410.56;;;8.55;100.00
38400;BME280;24180;42.676;23.320;2023-03-26T04:37:00;94422.66;;;8.64;100.00
38400;BME280;24180;42.676;23.320;2023-03-26T04:39:26;94432.84;;;8.65;100.00
38400;BME280;24180;42.676;23.320;2023-03-26T04:41:55;94433.50;;;8.67;100.00
38400;BME280;24180;42.676;23.320;2023-03-26T04:44:22;94415.47;;;8.58;100.00
38400;BME280;24180;42.676;23.320;2023-03-26T04:46:49;94448.44;;;8.73;100.00
38400;BME280;24180;42.676;23.320;2023-03-26T04:49:17;94424.78;;;8.78;100.00
38400;BME280;24180;42.676;23.320;2023-03-26T04:51:42;94449.31;;;8.91;100.00
38400;BME280;24180;42.676;23.320;2023-03-26T04:54:12;94451.19;;;8.99;100.00
38400;BME280;24180;42.676;23.320;2023-03-26T04:59:25;94436.53;;;9.00;100.00
38400;BME280;24180;42.676;23.320;2023-03-26T05:01:55;94446.25;;;9.15;100.00
38400;BME280;24180;42.676;23.320;2023-03-26T05:04:22;94450.06;;;9.11;100.00
38400;BME280;24180;42.676;23.320;2023-03-26T05:06:47;94450.66;;;9.05;100.00
38400;BME280;24180;42.676;23.320;2023-03-26T05:09:13;94425.38;;;8.99;100.00
38400;BME280;24180;42.676;23.320;2023-03-26T05:11:39;94428.06;;;9.07;100.00
38400;BME280;24180;42.676;23.320;2023-03-26T05:14:05;94397.03;;;8.89;100.00
38400;BME280;24180;42.676;23.320;2023-03-26T05:16:31;94438.19;;;9.28;100.00
38400;BME280;24180;42.676;23.320;2023-03-26T05:18:58;94444.84;;;9.30;100.00
38400;BME280;24180;42.676;23.320;2023-03-26T05:21:23;94468.47;;;9.35;100.00
38400;BME280;24180;42.676;23.320;2023-03-26T05:23:49;94460.63;;;9.27;100.00
38400;BME280;24180;42.676;23.320;2023-03-26T05:26:15;94465.69;;;9.19;100.00
38400;BME280;24180;42.676;23.320;2023-03-26T05:28:40;94457.78;;;8.84;100.00
38400;BME280;24180;42.676;23.320;2023-03-26T05:31:06;94475.84;;;8.93;100.00
38400;BME280;24180;42.676;23.320;2023-03-26T05:33:32;94469.88;;;8.83;100.00
38400;BME280;24180;42.676;23.320;2023-03-26T05:36:05;94478.56;;;8.92;100.00
38400;BME280;24180;42.676;23.320;2023-03-26T05:38:32;94471.63;;;8.83;100.00
38400;BME280;24180;42.676;23.320;2023-03-26T05:40:59;94424.28;;;8.55;100.00
38400;BME280;24180;42.676;23.320;2023-03-26T05:43:25;94477.66;;;8.74;100.00
38400;BME280;24180;42.676;23.320;2023-03-26T05:45:51;94478.19;;;8.77;100.00
38400;BME280;24180;42.676;23.320;2023-03-26T05:48:16;94478.44;;;8.84;100.00
38400;BME280;24180;42.676;23.320;2023-03-26T05:50:42;94482.38;;;8.88;100.00
38400;BME280;24180;42.676;23.320;2023-03-26T05:53:08;94482.91;;;8.91;100.00
38400;BME280;24180;42.676;23.320;2023-03-26T05:55:33;94496.09;;;8.98;100.00
38400;BME280;24180;42.676;23.320;2023-03-26T05:57:59;94459.41;;;8.85;100.00
38400;BME280;24180;42.676;23.320;2023-03-26T06:00:25;94473.06;;;9.05;100.00
38400;BME280;24180;42.676;23.320;2023-03-26T06:02:52;94452.31;;;8.97;100.00
38400;BME280;24180;42.676;23.320;2023-03-26T06:05:19;94469.13;;;9.10;100.00
38400;BME280;24180;42.676;23.320;2023-03-26T06:07:44;94463.38;;;9.16;100.00
38400;BME280;24180;42.676;23.320;2023-03-26T06:10:10;94482.53;;;9.23;100.00
38400;BME280;24180;42.676;23.320;2023-03-26T06:12:36;94482.53;;;9.23;100.00
38400;BME280;24180;42.676;23.320;2023-03-26T06:15:01;94444.38;;;9.08;100.00
38400;BME280;24180;42.676;23.320;2023-03-26T06:17:27;94463.00;;;9.11;100.00
38400;BME280;24180;42.676;23.320;2023-03-26T06:19:52;94473.84;;;9.15;100.00
38400;BME280;24180;42.676;23.320;2023-03-26T06:22:18;94473.19;;;9.13;100.00
38400;BME280;24180;42.676;23.320;2023-03-26T06:24:44;94450.13;;;9.02;100.00
38400;BME280;24180;42.676;23.320;2023-03-26T06:27:10;94461.72;;;9.25;100.00
38400;BME280;24180;42.676;23.320;2023-03-26T06:29:35;94467.00;;;9.33;100.00
38400;BME280;24180;42.676;23.320;2023-03-26T06:32:01;94448.59;;;9.36;100.00
38400;BME280;24180;42.676;23.320;2023-03-26T06:34:26;94471.94;;;9.54;100.00
38400;BME280;24180;42.676;23.320;2023-03-26T06:36:51;94469.63;;;9.51;100.00
38400;BME280;24180;42.676;23.320;2023-03-26T06:39:18;94460.34;;;9.58;100.00
38400;BME280;24180;42.676;23.320;2023-03-26T06:41:44;94454.22;;;9.59;100.00
38400;BME280;24180;42.676;23.320;2023-03-26T06:44:10;94473.34;;;9.66;100.00
38400;BME280;24180;42.676;23.320;2023-03-26T06:46:36;94443.00;;;9.40;100.00
38400;BME280;24180;42.676;23.320;2023-03-26T06:49:01;94452.09;;;9.45;100.00
38400;BME280;24180;42.676;23.320;2023-03-26T06:51:27;94466.47;;;9.57;100.00
38400;BME280;24180;42.676;23.320;2023-03-26T06:53:53;94446.66;;;9.48;100.00
38400;BME280;24180;42.676;23.320;2023-03-26T06:56:18;94494.56;;;9.87;100.00
38400;BME280;24180;42.676;23.320;2023-03-26T06:58:43;94473.88;;;9.87;100.00
38400;BME280;24180;42.676;23.320;2023-03-26T07:01:09;94490.91;;;10.07;100.00
38400;BME280;24180;42.676;23.320;2023-03-26T07:03:34;94472.28;;;9.86;100.00
38400;BME280;24180;42.676;23.320;2023-03-26T07:06:00;94492.47;;;10.00;100.00
38400;BME280;24180;42.676;23.320;2023-03-26T07:08:25;94479.44;;;9.92;100.00
38400;BME280;24180;42.676;23.320;2023-03-26T07:10:51;94447.31;;;9.95;100.00
38400;BME280;24180;42.676;23.320;2023-03-26T07:13:16;94500.19;;;10.45;100.00
38400;BME280;24180;42.676;23.320;2023-03-26T07:15:42;94479.06;;;10.50;100.00
38400;BME280;24180;42.676;23.320;2023-03-26T07:18:07;94469.13;;;10.27;100.00
38400;BME280;24180;42.676;23.320;2023-03-26T07:20:33;94497.03;;;10.33;100.00
38400;BME280;24180;42.676;23.320;2023-03-26T07:22:58;94470.13;;;10.26;100.00
38400;BME280;24180;42.676;23.320;2023-03-26T07:25:24;94470.53;;;10.40;100.00
38400;BME280;24180;42.676;23.320;2023-03-26T07:28:22;94496.69;;;10.72;100.00
38400;BME280;24180;42.676;23.320;2023-03-26T07:31:17;94489.16;;;10.61;100.00
38400;BME280;24180;42.676;23.320;2023-03-26T07:41:44;94483.09;;;10.70;100.00
38400;BME280;24180;42.676;23.320;2023-03-26T07:47:14;94448.03;;;10.84;100.00
38400;BME280;24180;42.676;23.320;2023-03-26T07:49:41;94456.72;;;11.00;100.00
38400;BME280;24180;42.676;23.320;2023-03-26T07:52:09;94446.22;;;11.02;100.00
38400;BME280;24180;42.676;23.320;2023-03-26T07:54:35;94451.41;;;11.02;100.00
38400;BME280;24180;42.676;23.320;2023-03-26T07:57:04;94473.31;;;11.15;100.00
38400;BME280;24180;42.676;23.320;2023-03-26T07:59:51;94462.72;;;11.26;100.00
38400;BME280;24180;42.676;23.320;2023-03-26T08:03:39;94463.56;;;11.35;100.00
38400;BME280;24180;42.676;23.320;2023-03-26T08:05:59;94436.88;;;11.43;100.00
38400;BME280;24180;42.676;23.320;2023-03-26T08:16:33;94431.91;;;11.65;100.00
38400;BME280;24180;42.676;23.320;2023-03-26T08:21:50;94461.50;;;11.81;98.91
38400;BME280;24180;42.676;23.320;2023-03-26T08:24:32;94466.22;;;11.93;98.04
38400;BME280;24180;42.676;23.320;2023-03-26T08:27:15;94465.63;;;12.07;93.95
38400;BME280;24180;42.676;23.320;2023-03-26T08:32:34;94442.75;;;12.03;97.30
38400;BME280;24180;42.676;23.320;2023-03-26T08:34:59;94448.75;;;12.03;96.09
38400;BME280;24180;42.676;23.320;2023-03-26T08:37:25;94467.91;;;12.27;95.51
38400;BME280;24180;42.676;23.320;2023-03-26T08:39:52;94465.63;;;12.40;93.79
38400;BME280;24180;42.676;23.320;2023-03-26T08:57:41;94466.31;;;12.50;97.29
38400;BME280;24180;42.676;23.320;2023-03-26T08:59:56;94464.69;;;12.57;94.58
38400;BME280;24180;42.676;23.320;2023-03-26T09:10:48;94462.41;;;12.78;85.63
38400;BME280;24180;42.676;23.320;2023-03-26T09:27:38;94445.50;;;12.90;77.63
38400;BME280;24180;42.676;23.320;2023-03-26T09:35:52;94441.25;;;13.05;74.73
38400;BME280;24180;42.676;23.320;2023-03-26T09:41:09;94440.94;;;12.92;75.24
38400;BME280;24180;42.676;23.320;2023-03-26T09:49:17;94438.34;;;13.64;77.47
38400;BME280;24180;42.676;23.320;2023-03-26T09:57:12;94440.72;;;14.35;70.87
38400;BME280;24180;42.676;23.320;2023-03-26T09:59:56;94438.13;;;15.68;63.66
38400;BME280;24180;42.676;23.320;2023-03-26T10:07:55;94397.69;;;20.23;45.03
38400;BME280;24180;42.676;23.320;2023-03-26T10:10:42;94400.06;;;20.38;41.71
38400;BME280;24180;42.676;23.320;2023-03-26T10:13:39;94397.84;;;20.28;39.89
38400;BME280;24180;42.676;23.320;2023-03-26T10:16:33;94396.41;;;19.43;40.49
38400;BME280;24180;42.676;23.320;2023-03-26T10:19:29;94384.81;;;20.08;40.52
38400;BME280;24180;42.676;23.320;2023-03-26T10:33:08;94370.72;;;21.88;33.56
38400;BME280;24180;42.676;23.320;2023-03-26T10:36:33;94347.63;;;21.54;33.54
38400;BME280;24180;42.676;23.320;2023-03-26T10:38:42;94354.72;;;22.19;34.87
38400;BME280;24180;42.676;23.320;2023-03-26T10:52:08;94315.00;;;21.18;32.39
38400;BME280;24180;42.676;23.320;2023-03-26T10:57:45;94331.38;;;23.86;29.27
38400;BME280;24180;42.676;23.320;2023-03-26T11:00:21;94333.75;;;22.66;30.02
38400;BME280;24180;42.676;23.320;2023-03-26T11:03:10;94317.47;;;23.90;28.22
38400;BME280;24180;42.676;23.320;2023-03-26T11:16:53;94321.22;;;23.66;27.24
38400;BME280;24180;42.676;23.320;2023-03-26T11:30:28;94291.56;;;27.87;23.00
38400;BME280;24180;42.676;23.320;2023-03-26T11:33:02;94301.81;;;25.34;25.32
38400;BME280;24180;42.676;23.320;2023-03-26T11:35:39;94298.31;;;25.50;24.66
38400;BME280;24180;42.676;23.320;2023-03-26T11:38:18;94289.41;;;25.17;25.08
38400;BME280;24180;42.676;23.320;2023-03-26T11:40:49;94261.78;;;23.97;26.01
38400;BME280;24180;42.676;23.320;2023-03-26T11:43:21;94289.75;;;21.47;27.68
38400;BME280;24180;42.676;23.320;2023-03-26T11:45:49;94257.81;;;20.82;28.99
38400;BME280;24180;42.676;23.320;2023-03-26T11:48:32;94252.03;;;20.31;28.77
38400;BME280;24180;42.676;23.320;2023-03-26T11:51:22;94256.06;;;19.33;29.89
38400;BME280;24180;42.676;23.320;2023-03-26T11:53:47;94238.50;;;19.27;30.65
38400;BME280;24180;42.676;23.320;2023-03-26T11:56:24;94249.09;;;19.00;31.90
38400;BME280;24180;42.676;23.320;2023-03-26T11:59:08;94246.19;;;18.24;33.05
38400;BME280;24180;42.676;23.320;2023-03-26T12:01:43;94251.28;;;17.39;34.59
38400;BME280;24180;42.676;23.320;2023-03-26T12:04:16;94238.47;;;17.03;35.33
38400;BME280;24180;42.676;23.320;2023-03-26T12:06:55;94237.88;;;16.60;35.04
38400;BME280;24180;42.676;23.320;2023-03-26T12:09:21;94232.72;;;16.18;34.83
38400;BME280;24180;42.676;23.320;2023-03-26T12:11:47;94236.19;;;15.97;35.20
38400;BME280;24180;42.676;23.320;2023-03-26T12:14:20;94202.63;;;15.73;35.64
38400;BME280;24180;42.676;23.320;2023-03-26T12:17:10;94227.69;;;15.88;35.00
38400;BME280;24180;42.676;23.320;2023-03-26T12:19:43;94224.06;;;15.89;35.33
38400;BME280;24180;42.676;23.320;2023-03-26T12:22:29;94227.50;;;15.90;35.65
38400;BME280;24180;42.676;23.320;2023-03-26T12:25:22;94205.19;;;15.66;35.45
38400;BME280;24180;42.676;23.320;2023-03-26T12:30:39;94184.19;;;15.53;35.40
38400;BME280;24180;42.676;23.320;2023-03-26T12:33:27;94189.66;;;15.58;35.99
38400;BME280;24180;42.676;23.320;2023-03-26T12:35:58;94178.00;;;15.54;35.81
38400;BME280;24180;42.676;23.320;2023-03-26T12:38:40;94161.72;;;15.52;32.87
38400;BME280;24180;42.676;23.320;2023-03-26T12:41:14;94170.41;;;15.59;32.30
38400;BME280;24180;42.676;23.320;2023-03-26T12:43:44;94186.94;;;15.66;33.67
38400;BME280;24180;42.676;23.320;2023-03-26T12:46:31;94175.25;;;15.62;32.96
38400;BME280;24180;42.676;23.320;2023-03-26T12:49:08;94183.50;;;15.87;32.90
38400;BME280;24180;42.676;23.320;2023-03-26T12:59:28;94171.31;;;15.73;31.50
38400;BME280;24180;42.676;23.320;2023-03-26T13:07:15;94168.63;;;15.87;31.54
38400;BME280;24180;42.676;23.320;2023-03-26T13:10:00;94157.00;;;15.90;30.80
38400;BME280;24180;42.676;23.320;2023-03-26T13:20:38;94137.72;;;15.91;30.46
38400;BME280;24180;42.676;23.320;2023-03-26T13:23:39;94152.97;;;15.87;30.32
38400;BME280;24180;42.676;23.320;2023-03-26T13:29:14;94145.75;;;15.89;29.52
38400;BME280;24180;42.676;23.320;2023-03-26T13:31:47;94162.13;;;16.05;29.19
38400;BME280;24180;42.676;23.320;2023-03-26T13:35:11;94154.63;;;15.95;30.07
38400;BME280;24180;42.676;23.320;2023-03-26T13:37:21;94156.81;;;15.91;30.27
38400;BME280;24180;42.676;23.320;2023-03-26T13:40:15;94148.00;;;15.93;30.89
38400;BME280;24180;42.676;23.320;2023-03-26T13:48:27;94153.66;;;16.03;28.21
38400;BME280;24180;42.676;23.320;2023-03-26T13:53:40;94133.84;;;15.80;29.30
38400;BME280;24180;42.676;23.320;2023-03-26T13:56:10;94154.94;;;15.85;30.29
38400;BME280;24180;42.676;23.320;2023-03-26T13:58:43;94132.81;;;15.81;28.84
38400;BME280;24180;42.676;23.320;2023-03-26T14:01:18;94133.56;;;15.97;29.06
38400;BME280;24180;42.676;23.320;2023-03-26T14:09:29;94136.63;;;16.07;28.42
38400;BME280;24180;42.676;23.320;2023-03-26T14:14:36;94127.88;;;15.93;29.78
38400;BME280;24180;42.676;23.320;2023-03-26T14:35:53;94107.50;;;16.10;31.72
38400;BME280;24180;42.676;23.320;2023-03-26T14:49:28;94092.13;;;16.28;32.43
38400;BME280;24180;42.676;23.320;2023-03-26T14:52:06;94088.63;;;16.08;32.10
38400;BME280;24180;42.676;23.320;2023-03-26T14:54:38;94086.75;;;15.95;32.17
38400;BME280;24180;42.676;23.320;2023-03-26T15:00:06;94114.53;;;16.09;31.51
38400;BME280;24180;42.676;23.320;2023-03-26T15:03:04;94095.66;;;16.07;31.40
38400;BME280;24180;42.676;23.320;2023-03-26T15:33:50;94118.13;;;16.90;32.52
38400;BME280;24180;42.676;23.320;2023-03-26T15:45:28;94108.63;;;16.28;33.84
38400;BME280;24180;42.676;23.320;2023-03-26T15:47:39;94111.56;;;16.19;33.35
38400;BME280;24180;42.676;23.320;2023-03-26T15:52:48;94117.75;;;16.05;34.04
38400;BME280;24180;42.676;23.320;2023-03-26T15:55:27;94116.03;;;15.90;34.49
38400;BME280;24180;42.676;23.320;2023-03-26T15:58:01;94105.06;;;15.74;33.49
38400;BME280;24180;42.676;23.320;2023-03-26T16:00:33;94117.09;;;15.68;33.76
38400;BME280;24180;42.676;23.320;2023-03-26T16:05:42;94094.41;;;15.48;34.97
38400;BME280;24180;42.676;23.320;2023-03-26T16:14:20;94113.88;;;15.24;36.77
38400;BME280;24180;42.676;23.320;2023-03-26T16:16:50;94109.47;;;15.03;37.07
38400;BME280;24180;42.676;23.320;2023-03-26T16:19:25;94107.59;;;14.97;36.95
38400;BME280;24180;42.676;23.320;2023-03-26T16:22:06;94087.91;;;14.73;37.32
38400;BME280;24180;42.676;23.320;2023-03-26T16:24:38;94130.03;;;14.91;36.98
38400;BME280;24180;42.676;23.320;2023-03-26T16:29:33;94117.38;;;14.74;37.51
38400;BME280;24180;42.676;23.320;2023-03-26T16:32:31;94124.22;;;14.75;37.67
38400;BME280;24180;42.676;23.320;2023-03-26T16:34:58;94134.69;;;14.60;37.97
38400;BME280;24180;42.676;23.320;2023-03-26T16:45:33;94122.81;;;14.28;39.35
38400;BME280;24180;42.676;23.320;2023-03-26T16:53:32;94134.97;;;14.06;40.19
38400;BME280;24180;42.676;23.320;2023-03-26T16:58:55;94143.94;;;13.89;41.04
38400;BME280;24180;42.676;23.320;2023-03-26T17:01:46;94111.25;;;13.72;40.90
38400;BME280;24180;42.676;23.320;2023-03-26T17:04:15;94142.06;;;13.98;40.49
38400;BME280;24180;42.676;23.320;2023-03-26T17:09:50;94137.16;;;13.66;42.19
38400;BME280;24180;42.676;23.320;2023-03-26T17:12:33;94141.38;;;13.52;42.31
38400;BME280;24180;42.676;23.320;2023-03-26T17:16:03;94142.22;;;13.44;43.17
38400;BME280;24180;42.676;23.320;2023-03-26T17:26:27;94153.63;;;13.21;46.50
38400;BME280;24180;42.676;23.320;2023-03-26T17:29:22;94155.91;;;13.24;47.42
38400;BME280;24180;42.676;23.320;2023-03-26T17:32:09;94151.53;;;13.16;49.40
38400;BME280;24180;42.676;23.320;2023-03-26T17:42:27;94145.81;;;12.98;52.23
38400;BME280;24180;42.676;23.320;2023-03-26T17:44:55;94114.31;;;12.70;54.41
38400;BME280;24180;42.676;23.320;2023-03-26T17:47:37;94142.72;;;12.72;55.31
38400;BME280;24180;42.676;23.320;2023-03-26T17:52:50;94142.91;;;12.70;58.32
38400;BME280;24180;42.676;23.320;2023-03-26T17:55:20;94129.66;;;12.57;57.63
38400;BME280;24180;42.676;23.320;2023-03-26T17:57:50;94130.63;;;12.56;59.68
38400;BME280;24180;42.676;23.320;2023-03-26T18:00:22;94147.31;;;12.61;59.90
38400;BME280;24180;42.676;23.320;2023-03-26T18:03:07;94137.72;;;12.39;59.17
38400;BME280;24180;42.676;23.320;2023-03-26T18:05:37;94140.63;;;12.36;59.24
38400;BME280;24180;42.676;23.320;2023-03-26T18:11:24;94138.38;;;12.33;59.29
38400;BME280;24180;42.676;23.320;2023-03-26T18:21:34;94133.91;;;12.50;55.96
38400;BME280;24180;42.676;23.320;2023-03-26T18:24:01;94132.97;;;12.43;60.88
38400;BME280;24180;42.676;23.320;2023-03-26T18:29:27;94113.91;;;12.28;62.65
38400;BME280;24180;42.676;23.320;2023-03-26T18:32:07;94115.53;;;12.20;66.25
38400;BME280;24180;42.676;23.320;2023-03-26T18:34:46;94129.53;;;12.19;69.97
38400;BME280;24180;42.676;23.320;2023-03-26T18:37:26;94092.13;;;11.98;69.09
38400;BME280;24180;42.676;23.320;2023-03-26T18:39:59;94104.78;;;11.93;72.61
38400;BME280;24180;42.676;23.320;2023-03-26T18:42:29;94113.72;;;11.90;70.74
38400;BME280;24180;42.676;23.320;2023-03-26T18:44:57;94114.72;;;11.81;67.88
38400;BME280;24180;42.676;23.320;2023-03-26T18:47:25;94048.31;;;11.40;65.74
38400;BME280;24180;42.676;23.320;2023-03-26T18:49:53;94110.19;;;11.67;67.49
38400;BME280;24180;42.676;23.320;2023-03-26T18:52:21;94100.78;;;11.66;67.08